sensor_id;sensor_type;location;lat;lon;timestamp;P1;durP1;ratioP1;P2;durP2;ratioP2
3815;SDS011;1923;48.154;11.536;2024-03-08T00:00:20;24.10;;;11.57;;
3815;SDS011;1923;48.154;11.536;2024-03-08T00:02:48;23.90;;;11.10;;
3815;SDS011;1923;48.154;11.536;2024-03-08T00:05:18;27.40;;;12.17;;
3815;SDS011;1923;48.154;11.536;2024-03-08T00:07:47;25.87;;;11.20;;
3815;SDS011;1923;48.154;11.536;2024-03-08T00:10:15;23.23;;;11.60;;
3815;SDS011;1923;48.154;11.536;2024-03-08T00:12:44;23.30;;;11.60;;
3815;SDS011;1923;48.154;11.536;2024-03-08T00:15:14;23.80;;;11.00;;
3815;SDS011;1923;48.154;11.536;2024-03-08T00:17:45;26.50;;;12.27;;
3815;SDS011;1923;48.154;11.536;2024-03-08T00:20:14;26.03;;;10.97;;
3815;SDS011;1923;48.154;11.536;2024-03-08T00:22:44;25.30;;;13.00;;
3815;SDS011;1923;48.154;11.536;2024-03-08T00:25:13;20.93;;;10.87;;
3815;SDS011;1923;48.154;11.536;2024-03-08T00:27:42;23.03;;;11.47;;
3815;SDS011;1923;48.154;11.536;2024-03-08T00:30:11;22.83;;;12.27;;
3815;SDS011;1923;48.154;11.536;2024-03-08T00:32:40;22.30;;;11.93;;
3815;SDS011;1923;48.154;11.536;2024-03-08T00:35:09;21.67;;;11.70;;
3815;SDS011;1923;48.154;11.536;2024-03-08T00:37:38;26.80;;;11.10;;
3815;SDS011;1923;48.154;11.536;2024-03-08T00:40:08;21.20;;;11.43;;
3815;SDS011;1923;48.154;11.536;2024-03-08T00:42:39;22.47;;;10.83;;
3815;SDS011;1923;48.154;11.536;2024-03-08T00:45:08;22.90;;;11.50;;
3815;SDS011;1923;48.154;11.536;2024-03-08T00:47:37;22.57;;;12.47;;
3815;SDS011;1923;48.154;11.536;2024-03-08T00:50:06;24.47;;;12.30;;
3815;SDS011;1923;48.154;11.536;2024-03-08T00:52:35;25.43;;;12.37;;
3815;SDS011;1923;48.154;11.536;2024-03-08T00:55:04;21.83;;;11.20;;
3815;SDS011;1923;48.154;11.536;2024-03-08T00:57:32;23.70;;;12.20;;
3815;SDS011;1923;48.154;11.536;2024-03-08T01:00:04;22.83;;;12.13;;
3815;SDS011;1923;48.154;11.536;2024-03-08T01:02:34;26.43;;;12.83;;
3815;SDS011;1923;48.154;11.536;2024-03-08T01:05:02;24.63;;;11.57;;
3815;SDS011;1923;48.154;11.536;2024-03-08T01:07:33;23.93;;;12.20;;
3815;SDS011;1923;48.154;11.536;2024-03-08T01:10:01;23.17;;;11.83;;
3815;SDS011;1923;48.154;11.536;2024-03-08T01:12:29;25.50;;;12.50;;
3815;SDS011;1923;48.154;11.536;2024-03-08T01:14:57;23.00;;;11.23;;
3815;SDS011;1923;48.154;11.536;2024-03-08T01:17:27;28.57;;;12.90;;
3815;SDS011;1923;48.154;11.536;2024-03-08T01:19:55;24.03;;;12.27;;
3815;SDS011;1923;48.154;11.536;2024-03-08T01:22:24;22.63;;;11.20;;
3815;SDS011;1923;48.154;11.536;2024-03-08T01:24:54;26.03;;;13.23;;
3815;SDS011;1923;48.154;11.536;2024-03-08T01:27:22;25.53;;;12.63;;
3815;SDS011;1923;48.154;11.536;2024-03-08T01:29:51;24.10;;;11.80;;
3815;SDS011;1923;48.154;11.536;2024-03-08T01:32:20;23.13;;;11.63;;
3815;SDS011;1923;48.154;11.536;2024-03-08T01:34:50;26.60;;;12.07;;
3815;SDS011;1923;48.154;11.536;2024-03-08T01:37:18;23.77;;;11.90;;
3815;SDS011;1923;48.154;11.536;2024-03-08T01:39:46;22.50;;;12.30;;
3815;SDS011;1923;48.154;11.536;2024-03-08T01:42:14;28.13;;;12.90;;
3815;SDS011;1923;48.154;11.536;2024-03-08T01:44:44;22.97;;;12.83;;
3815;SDS011;1923;48.154;11.536;2024-03-08T01:47:12;23.17;;;11.90;;
3815;SDS011;1923;48.154;11.536;2024-03-08T01:49:40;26.97;;;13.57;;
3815;SDS011;1923;48.154;11.536;2024-03-08T01:52:10;26.83;;;12.30;;
3815;SDS011;1923;48.154;11.536;2024-03-08T01:54:38;25.33;;;12.00;;
3815;SDS011;1923;48.154;11.536;2024-03-08T01:57:07;25.77;;;11.63;;
3815;SDS011;1923;48.154;11.536;2024-03-08T01:59:35;28.27;;;13.93;;
3815;SDS011;1923;48.154;11.536;2024-03-08T02:02:04;25.93;;;13.80;;
3815;SDS011;1923;48.154;11.536;2024-03-08T02:04:35;24.63;;;12.43;;
3815;SDS011;1923;48.154;11.536;2024-03-08T02:07:04;34.10;;;13.87;;
3815;SDS011;1923;48.154;11.536;2024-03-08T02:09:37;28.13;;;13.93;;
3815;SDS011;1923;48.154;11.536;2024-03-08T02:12:09;25.40;;;13.43;;
3815;SDS011;1923;48.154;11.536;2024-03-08T02:14:38;27.90;;;12.73;;
3815;SDS011;1923;48.154;11.536;2024-03-08T02:17:06;28.47;;;13.47;;
3815;SDS011;1923;48.154;11.536;2024-03-08T02:19:34;27.63;;;12.97;;
3815;SDS011;1923;48.154;11.536;2024-03-08T02:22:04;30.00;;;14.00;;
3815;SDS011;1923;48.154;11.536;2024-03-08T02:24:33;24.83;;;12.87;;
3815;SDS011;1923;48.154;11.536;2024-03-08T02:27:02;27.97;;;13.00;;
3815;SDS011;1923;48.154;11.536;2024-03-08T02:29:30;25.30;;;12.60;;
3815;SDS011;1923;48.154;11.536;2024-03-08T02:32:00;27.70;;;12.90;;
3815;SDS011;1923;48.154;11.536;2024-03-08T02:34:29;24.80;;;13.30;;
3815;SDS011;1923;48.154;11.536;2024-03-08T02:36:58;33.13;;;15.30;;
3815;SDS011;1923;48.154;11.536;2024-03-08T02:39:28;22.87;;;12.50;;
3815;SDS011;1923;48.154;11.536;2024-03-08T02:41:56;29.93;;;13.40;;
3815;SDS011;1923;48.154;11.536;2024-03-08T02:44:24;32.97;;;14.90;;
3815;SDS011;1923;48.154;11.536;2024-03-08T02:46:52;30.77;;;14.83;;
3815;SDS011;1923;48.154;11.536;2024-03-08T02:49:21;24.53;;;13.03;;
3815;SDS011;1923;48.154;11.536;2024-03-08T02:51:49;28.33;;;13.97;;
3815;SDS011;1923;48.154;11.536;2024-03-08T02:54:17;33.40;;;13.83;;
3815;SDS011;1923;48.154;11.536;2024-03-08T02:56:48;31.70;;;14.30;;
3815;SDS011;1923;48.154;11.536;2024-03-08T02:59:17;34.67;;;15.30;;
3815;SDS011;1923;48.154;11.536;2024-03-08T03:01:45;30.77;;;15.60;;
3815;SDS011;1923;48.154;11.536;2024-03-08T03:04:13;27.20;;;14.23;;
3815;SDS011;1923;48.154;11.536;2024-03-08T03:06:41;35.37;;;14.70;;
3815;SDS011;1923;48.154;11.536;2024-03-08T03:09:09;34.80;;;15.67;;
3815;SDS011;1923;48.154;11.536;2024-03-08T03:11:38;29.90;;;14.87;;
3815;SDS011;1923;48.154;11.536;2024-03-08T03:14:07;28.57;;;14.50;;
3815;SDS011;1923;48.154;11.536;2024-03-08T03:16:35;28.67;;;14.20;;
3815;SDS011;1923;48.154;11.536;2024-03-08T03:19:05;32.90;;;15.10;;
3815;SDS011;1923;48.154;11.536;2024-03-08T03:21:34;29.87;;;15.03;;
3815;SDS011;1923;48.154;11.536;2024-03-08T03:24:02;30.57;;;15.40;;
3815;SDS011;1923;48.154;11.536;2024-03-08T03:26:37;31.00;;;14.70;;
3815;SDS011;1923;48.154;11.536;2024-03-08T03:29:08;30.10;;;15.03;;
3815;SDS011;1923;48.154;11.536;2024-03-08T03:31:37;30.47;;;14.80;;
3815;SDS011;1923;48.154;11.536;2024-03-08T03:34:06;32.70;;;15.17;;
3815;SDS011;1923;48.154;11.536;2024-03-08T03:36:35;32.00;;;14.33;;
3815;SDS011;1923;48.154;11.536;2024-03-08T03:39:05;30.10;;;14.43;;
3815;SDS011;1923;48.154;11.536;2024-03-08T03:41:37;33.87;;;15.30;;
3815;SDS011;1923;48.154;11.536;2024-03-08T03:44:05;34.40;;;15.27;;
3815;SDS011;1923;48.154;11.536;2024-03-08T03:46:35;31.33;;;14.53;;
3815;SDS011;1923;48.154;11.536;2024-03-08T03:49:03;35.90;;;15.90;;
3815;SDS011;1923;48.154;11.536;2024-03-08T03:51:55;35.07;;;15.93;;
3815;SDS011;1923;48.154;11.536;2024-03-08T03:54:23;36.93;;;15.40;;
3815;SDS011;1923;48.154;11.536;2024-03-08T03:56:52;37.60;;;15.50;;
3815;SDS011;1923;48.154;11.536;2024-03-08T03:59:20;30.83;;;14.10;;
3815;SDS011;1923;48.154;11.536;2024-03-08T04:01:49;37.90;;;16.50;;
3815;SDS011;1923;48.154;11.536;2024-03-08T04:04:17;32.73;;;16.50;;
3815;SDS011;1923;48.154;11.536;2024-03-08T04:06:45;35.27;;;17.50;;
3815;SDS011;1923;48.154;11.536;2024-03-08T04:09:13;35.90;;;15.60;;
3815;SDS011;1923;48.154;11.536;2024-03-08T04:11:42;32.10;;;15.60;;
3815;SDS011;1923;48.154;11.536;2024-03-08T04:14:10;35.83;;;17.17;;
3815;SDS011;1923;48.154;11.536;2024-03-08T04:16:38;33.53;;;15.97;;
3815;SDS011;1923;48.154;11.536;2024-03-08T04:19:07;29.57;;;15.77;;
3815;SDS011;1923;48.154;11.536;2024-03-08T04:21:36;35.40;;;17.90;;
3815;SDS011;1923;48.154;11.536;2024-03-08T04:24:04;33.90;;;16.37;;
3815;SDS011;1923;48.154;11.536;2024-03-08T04:26:33;37.50;;;17.90;;
3815;SDS011;1923;48.154;11.536;2024-03-08T04:29:01;38.97;;;19.10;;
3815;SDS011;1923;48.154;11.536;2024-03-08T04:31:29;43.27;;;18.20;;
3815;SDS011;1923;48.154;11.536;2024-03-08T04:33:58;31.10;;;16.67;;
3815;SDS011;1923;48.154;11.536;2024-03-08T04:36:27;38.73;;;18.40;;
3815;SDS011;1923;48.154;11.536;2024-03-08T04:38:55;40.03;;;17.47;;
3815;SDS011;1923;48.154;11.536;2024-03-08T04:41:24;33.87;;;17.13;;
3815;SDS011;1923;48.154;11.536;2024-03-08T04:43:52;40.73;;;17.23;;
3815;SDS011;1923;48.154;11.536;2024-03-08T04:46:20;41.20;;;19.00;;
3815;SDS011;1923;48.154;11.536;2024-03-08T04:48:48;39.80;;;18.00;;
3815;SDS011;1923;48.154;11.536;2024-03-08T04:51:16;42.43;;;20.20;;
3815;SDS011;1923;48.154;11.536;2024-03-08T04:53:47;41.30;;;19.23;;
3815;SDS011;1923;48.154;11.536;2024-03-08T04:56:16;41.20;;;19.07;;
3815;SDS011;1923;48.154;11.536;2024-03-08T04:58:45;43.40;;;20.17;;
3815;SDS011;1923;48.154;11.536;2024-03-08T05:01:13;39.47;;;19.17;;
3815;SDS011;1923;48.154;11.536;2024-03-08T05:03:42;39.80;;;20.00;;
3815;SDS011;1923;48.154;11.536;2024-03-08T05:06:10;40.97;;;19.20;;
3815;SDS011;1923;48.154;11.536;2024-03-08T05:08:38;47.23;;;20.30;;
3815;SDS011;1923;48.154;11.536;2024-03-08T05:11:07;40.93;;;19.97;;
3815;SDS011;1923;48.154;11.536;2024-03-08T05:13:36;40.50;;;18.90;;
3815;SDS011;1923;48.154;11.536;2024-03-08T05:16:04;45.77;;;21.63;;
3815;SDS011;1923;48.154;11.536;2024-03-08T05:18:33;37.77;;;19.03;;
3815;SDS011;1923;48.154;11.536;2024-03-08T05:21:02;38.30;;;19.60;;
3815;SDS011;1923;48.154;11.536;2024-03-08T05:23:30;51.00;;;19.70;;
3815;SDS011;1923;48.154;11.536;2024-03-08T05:25:58;39.13;;;20.27;;
3815;SDS011;1923;48.154;11.536;2024-03-08T05:28:28;38.47;;;19.00;;
3815;SDS011;1923;48.154;11.536;2024-03-08T05:30:56;43.10;;;19.20;;
3815;SDS011;1923;48.154;11.536;2024-03-08T05:33:24;40.87;;;18.17;;
3815;SDS011;1923;48.154;11.536;2024-03-08T05:35:52;38.57;;;19.60;;
3815;SDS011;1923;48.154;11.536;2024-03-08T05:38:21;37.77;;;19.03;;
3815;SDS011;1923;48.154;11.536;2024-03-08T05:40:49;40.47;;;19.70;;
3815;SDS011;1923;48.154;11.536;2024-03-08T05:43:17;40.17;;;18.57;;
3815;SDS011;1923;48.154;11.536;2024-03-08T05:45:47;58.60;;;24.93;;
3815;SDS011;1923;48.154;11.536;2024-03-08T05:48:15;39.97;;;18.70;;
3815;SDS011;1923;48.154;11.536;2024-03-08T05:50:45;40.60;;;19.30;;
3815;SDS011;1923;48.154;11.536;2024-03-08T05:53:13;39.37;;;19.17;;
3815;SDS011;1923;48.154;11.536;2024-03-08T05:55:42;42.37;;;19.00;;
3815;SDS011;1923;48.154;11.536;2024-03-08T05:58:10;46.00;;;20.40;;
3815;SDS011;1923;48.154;11.536;2024-03-08T06:00:38;37.83;;;18.80;;
3815;SDS011;1923;48.154;11.536;2024-03-08T06:03:07;40.03;;;19.50;;
3815;SDS011;1923;48.154;11.536;2024-03-08T06:05:35;42.50;;;20.23;;
3815;SDS011;1923;48.154;11.536;2024-03-08T06:08:08;45.70;;;21.27;;
3815;SDS011;1923;48.154;11.536;2024-03-08T06:10:37;35.13;;;18.10;;
3815;SDS011;1923;48.154;11.536;2024-03-08T06:13:05;38.20;;;17.60;;
3815;SDS011;1923;48.154;11.536;2024-03-08T06:15:34;36.50;;;19.80;;
3815;SDS011;1923;48.154;11.536;2024-03-08T06:18:02;40.87;;;18.67;;
3815;SDS011;1923;48.154;11.536;2024-03-08T06:20:33;36.60;;;17.23;;
3815;SDS011;1923;48.154;11.536;2024-03-08T06:23:02;38.97;;;17.30;;
3815;SDS011;1923;48.154;11.536;2024-03-08T06:25:30;33.20;;;16.87;;
3815;SDS011;1923;48.154;11.536;2024-03-08T06:27:58;37.07;;;18.07;;
3815;SDS011;1923;48.154;11.536;2024-03-08T06:30:29;39.90;;;18.17;;
3815;SDS011;1923;48.154;11.536;2024-03-08T06:32:57;42.47;;;19.03;;
3815;SDS011;1923;48.154;11.536;2024-03-08T06:35:25;34.83;;;17.70;;
3815;SDS011;1923;48.154;11.536;2024-03-08T06:37:55;37.93;;;18.93;;
3815;SDS011;1923;48.154;11.536;2024-03-08T06:40:23;34.37;;;17.50;;
3815;SDS011;1923;48.154;11.536;2024-03-08T06:42:51;39.10;;;18.80;;
3815;SDS011;1923;48.154;11.536;2024-03-08T06:45:21;35.97;;;17.90;;
3815;SDS011;1923;48.154;11.536;2024-03-08T06:47:50;35.40;;;17.50;;
3815;SDS011;1923;48.154;11.536;2024-03-08T06:50:22;34.37;;;17.10;;
3815;SDS011;1923;48.154;11.536;2024-03-08T06:52:51;43.47;;;17.30;;
3815;SDS011;1923;48.154;11.536;2024-03-08T06:55:21;35.00;;;16.57;;
3815;SDS011;1923;48.154;11.536;2024-03-08T06:57:49;32.27;;;16.73;;
3815;SDS011;1923;48.154;11.536;2024-03-08T07:00:18;32.60;;;15.57;;
3815;SDS011;1923;48.154;11.536;2024-03-08T07:02:47;31.93;;;15.80;;
3815;SDS011;1923;48.154;11.536;2024-03-08T07:05:16;33.83;;;16.90;;
3815;SDS011;1923;48.154;11.536;2024-03-08T07:07:44;31.73;;;15.27;;
3815;SDS011;1923;48.154;11.536;2024-03-08T07:10:14;34.70;;;16.10;;
3815;SDS011;1923;48.154;11.536;2024-03-08T07:12:44;32.40;;;15.30;;
3815;SDS011;1923;48.154;11.536;2024-03-08T07:15:13;27.13;;;14.67;;
3815;SDS011;1923;48.154;11.536;2024-03-08T07:17:41;29.23;;;14.73;;
3815;SDS011;1923;48.154;11.536;2024-03-08T07:20:11;27.87;;;14.00;;
3815;SDS011;1923;48.154;11.536;2024-03-08T07:22:40;28.70;;;15.00;;
3815;SDS011;1923;48.154;11.536;2024-03-08T07:25:12;30.67;;;14.47;;
3815;SDS011;1923;48.154;11.536;2024-03-08T07:27:52;31.20;;;14.47;;
3815;SDS011;1923;48.154;11.536;2024-03-08T07:30:21;33.73;;;15.20;;
3815;SDS011;1923;48.154;11.536;2024-03-08T07:33:09;30.17;;;14.83;;
3815;SDS011;1923;48.154;11.536;2024-03-08T07:35:40;27.23;;;14.07;;
3815;SDS011;1923;48.154;11.536;2024-03-08T07:38:08;32.37;;;15.80;;
3815;SDS011;1923;48.154;11.536;2024-03-08T07:40:38;28.57;;;14.20;;
3815;SDS011;1923;48.154;11.536;2024-03-08T07:43:12;29.63;;;13.63;;
3815;SDS011;1923;48.154;11.536;2024-03-08T07:45:41;31.10;;;14.53;;
3815;SDS011;1923;48.154;11.536;2024-03-08T07:48:09;30.27;;;14.20;;
3815;SDS011;1923;48.154;11.536;2024-03-08T07:50:39;23.57;;;12.00;;
3815;SDS011;1923;48.154;11.536;2024-03-08T07:53:07;27.90;;;13.40;;
3815;SDS011;1923;48.154;11.536;2024-03-08T07:55:36;27.17;;;13.60;;
3815;SDS011;1923;48.154;11.536;2024-03-08T07:58:06;34.40;;;13.73;;
3815;SDS011;1923;48.154;11.536;2024-03-08T08:00:38;28.70;;;13.13;;
3815;SDS011;1923;48.154;11.536;2024-03-08T08:03:12;27.90;;;14.10;;
3815;SDS011;1923;48.154;11.536;2024-03-08T08:05:42;26.80;;;12.70;;
3815;SDS011;1923;48.154;11.536;2024-03-08T08:08:13;26.00;;;11.90;;
3815;SDS011;1923;48.154;11.536;2024-03-08T08:10:41;25.53;;;12.57;;
3815;SDS011;1923;48.154;11.536;2024-03-08T08:13:09;30.20;;;13.13;;
3815;SDS011;1923;48.154;11.536;2024-03-08T08:15:40;30.97;;;13.20;;
3815;SDS011;1923;48.154;11.536;2024-03-08T08:18:08;25.57;;;12.40;;
3815;SDS011;1923;48.154;11.536;2024-03-08T08:20:37;23.60;;;11.47;;
3815;SDS011;1923;48.154;11.536;2024-03-08T08:23:05;20.43;;;11.47;;
3815;SDS011;1923;48.154;11.536;2024-03-08T08:25:33;27.50;;;11.90;;
3815;SDS011;1923;48.154;11.536;2024-03-08T08:28:01;22.87;;;11.17;;
3815;SDS011;1923;48.154;11.536;2024-03-08T08:30:31;26.30;;;11.30;;
3815;SDS011;1923;48.154;11.536;2024-03-08T08:33:01;27.30;;;12.27;;
3815;SDS011;1923;48.154;11.536;2024-03-08T08:35:32;22.70;;;11.10;;
3815;SDS011;1923;48.154;11.536;2024-03-08T08:38:00;21.90;;;11.03;;
3815;SDS011;1923;48.154;11.536;2024-03-08T08:40:30;25.17;;;11.77;;
3815;SDS011;1923;48.154;11.536;2024-03-08T08:42:58;26.17;;;11.23;;
3815;SDS011;1923;48.154;11.536;2024-03-08T08:45:26;26.47;;;12.30;;
3815;SDS011;1923;48.154;11.536;2024-03-08T08:47:54;26.83;;;12.60;;
3815;SDS011;1923;48.154;11.536;2024-03-08T08:50:24;27.73;;;12.20;;
3815;SDS011;1923;48.154;11.536;2024-03-08T08:52:53;24.43;;;12.20;;
3815;SDS011;1923;48.154;11.536;2024-03-08T08:55:21;25.50;;;11.57;;
3815;SDS011;1923;48.154;11.536;2024-03-08T08:57:52;24.43;;;11.30;;
3815;SDS011;1923;48.154;11.536;2024-03-08T09:00:22;30.40;;;12.67;;
3815;SDS011;1923;48.154;11.536;2024-03-08T09:02:54;25.50;;;11.07;;
3815;SDS011;1923;48.154;11.536;2024-03-08T09:05:26;19.43;;;11.23;;
3815;SDS011;1923;48.154;11.536;2024-03-08T09:07:54;23.90;;;10.83;;
3815;SDS011;1923;48.154;11.536;2024-03-08T09:10:23;26.33;;;11.07;;
3815;SDS011;1923;48.154;11.536;2024-03-08T09:12:56;25.83;;;11.17;;
3815;SDS011;1923;48.154;11.536;2024-03-08T09:15:26;21.47;;;10.80;;
3815;SDS011;1923;48.154;11.536;2024-03-08T09:17:55;22.87;;;10.50;;
3815;SDS011;1923;48.154;11.536;2024-03-08T09:20:24;30.87;;;13.30;;
3815;SDS011;1923;48.154;11.536;2024-03-08T09:22:53;21.40;;;11.90;;
3815;SDS011;1923;48.154;11.536;2024-03-08T09:25:21;24.53;;;11.53;;
3815;SDS011;1923;48.154;11.536;2024-03-08T09:27:49;26.73;;;12.60;;
3815;SDS011;1923;48.154;11.536;2024-03-08T09:30:17;29.23;;;12.17;;
3815;SDS011;1923;48.154;11.536;2024-03-08T09:32:47;23.40;;;12.30;;
3815;SDS011;1923;48.154;11.536;2024-03-08T09:35:18;28.53;;;11.40;;
3815;SDS011;1923;48.154;11.536;2024-03-08T09:37:48;24.20;;;10.83;;
3815;SDS011;1923;48.154;11.536;2024-03-08T09:40:18;24.43;;;12.37;;
3815;SDS011;1923;48.154;11.536;2024-03-08T09:42:47;24.83;;;11.37;;
3815;SDS011;1923;48.154;11.536;2024-03-08T09:45:15;26.10;;;12.20;;
3815;SDS011;1923;48.154;11.536;2024-03-08T09:47:44;25.33;;;12.60;;
3815;SDS011;1923;48.154;11.536;2024-03-08T09:50:13;19.27;;;10.23;;
3815;SDS011;1923;48.154;11.536;2024-03-08T09:52:41;23.43;;;11.67;;
3815;SDS011;1923;48.154;11.536;2024-03-08T09:55:12;26.87;;;12.33;;
3815;SDS011;1923;48.154;11.536;2024-03-08T09:57:40;21.23;;;10.77;;
3815;SDS011;1923;48.154;11.536;2024-03-08T10:00:29;20.43;;;11.20;;
3815;SDS011;1923;48.154;11.536;2024-03-08T10:03:00;25.60;;;11.90;;
3815;SDS011;1923;48.154;11.536;2024-03-08T10:05:28;23.47;;;11.90;;
3815;SDS011;1923;48.154;11.536;2024-03-08T10:07:58;26.30;;;12.00;;
3815;SDS011;1923;48.154;11.536;2024-03-08T10:10:28;23.53;;;11.97;;
3815;SDS011;1923;48.154;11.536;2024-03-08T10:12:56;22.43;;;11.37;;
3815;SDS011;1923;48.154;11.536;2024-03-08T10:15:26;21.10;;;11.50;;
3815;SDS011;1923;48.154;11.536;2024-03-08T10:17:55;23.23;;;11.37;;
3815;SDS011;1923;48.154;11.536;2024-03-08T10:20:24;22.77;;;11.43;;
3815;SDS011;1923;48.154;11.536;2024-03-08T10:22:53;24.57;;;11.40;;
3815;SDS011;1923;48.154;11.536;2024-03-08T10:25:36;19.50;;;10.53;;
3815;SDS011;1923;48.154;11.536;2024-03-08T10:28:05;23.97;;;12.20;;
3815;SDS011;1923;48.154;11.536;2024-03-08T10:30:34;18.83;;;9.47;;
3815;SDS011;1923;48.154;11.536;2024-03-08T10:33:02;20.43;;;10.57;;
3815;SDS011;1923;48.154;11.536;2024-03-08T10:35:32;19.90;;;11.27;;
3815;SDS011;1923;48.154;11.536;2024-03-08T10:38:00;20.93;;;10.73;;
3815;SDS011;1923;48.154;11.536;2024-03-08T10:40:34;20.50;;;11.23;;
3815;SDS011;1923;48.154;11.536;2024-03-08T10:43:06;19.87;;;9.63;;
3815;SDS011;1923;48.154;11.536;2024-03-08T10:45:46;18.70;;;10.23;;
3815;SDS011;1923;48.154;11.536;2024-03-08T10:48:20;20.07;;;9.97;;
3815;SDS011;1923;48.154;11.536;2024-03-08T10:51:03;18.73;;;9.23;;
3815;SDS011;1923;48.154;11.536;2024-03-08T10:53:33;16.47;;;9.13;;
3815;SDS011;1923;48.154;11.536;2024-03-08T10:56:05;20.30;;;9.50;;
3815;SDS011;1923;48.154;11.536;2024-03-08T10:58:33;17.10;;;9.50;;
3815;SDS011;1923;48.154;11.536;2024-03-08T11:01:04;22.17;;;10.60;;
3815;SDS011;1923;48.154;11.536;2024-03-08T11:03:46;19.53;;;10.67;;
3815;SDS011;1923;48.154;11.536;2024-03-08T11:06:21;18.30;;;9.37;;
3815;SDS011;1923;48.154;11.536;2024-03-08T11:08:57;18.17;;;9.63;;
3815;SDS011;1923;48.154;11.536;2024-03-08T11:11:27;18.90;;;9.30;;
3815;SDS011;1923;48.154;11.536;2024-03-08T11:14:00;17.90;;;9.63;;
3815;SDS011;1923;48.154;11.536;2024-03-08T11:16:37;17.60;;;10.33;;
3815;SDS011;1923;48.154;11.536;2024-03-08T11:19:23;17.70;;;10.03;;
3815;SDS011;1923;48.154;11.536;2024-03-08T11:21:59;19.33;;;9.70;;
3815;SDS011;1923;48.154;11.536;2024-03-08T11:24:28;18.60;;;9.77;;
3815;SDS011;1923;48.154;11.536;2024-03-08T11:27:08;17.93;;;8.67;;
3815;SDS011;1923;48.154;11.536;2024-03-08T11:29:40;19.30;;;10.10;;
3815;SDS011;1923;48.154;11.536;2024-03-08T11:32:08;20.50;;;10.20;;
3815;SDS011;1923;48.154;11.536;2024-03-08T11:34:38;20.10;;;10.37;;
3815;SDS011;1923;48.154;11.536;2024-03-08T11:37:13;16.70;;;10.03;;
3815;SDS011;1923;48.154;11.536;2024-03-08T11:39:46;25.17;;;11.77;;
3815;SDS011;1923;48.154;11.536;2024-03-08T11:42:17;22.17;;;11.77;;
3815;SDS011;1923;48.154;11.536;2024-03-08T11:44:45;23.63;;;11.50;;
3815;SDS011;1923;48.154;11.536;2024-03-08T11:47:14;22.93;;;11.13;;
3815;SDS011;1923;48.154;11.536;2024-03-08T11:49:44;23.97;;;11.23;;
3815;SDS011;1923;48.154;11.536;2024-03-08T11:52:15;26.03;;;11.90;;
3815;SDS011;1923;48.154;11.536;2024-03-08T11:54:47;24.23;;;12.13;;
3815;SDS011;1923;48.154;11.536;2024-03-08T11:57:21;23.83;;;11.30;;
3815;SDS011;1923;48.154;11.536;2024-03-08T11:59:51;24.00;;;11.67;;
3815;SDS011;1923;48.154;11.536;2024-03-08T12:02:23;21.37;;;10.50;;
3815;SDS011;1923;48.154;11.536;2024-03-08T12:04:55;22.20;;;11.63;;
3815;SDS011;1923;48.154;11.536;2024-03-08T12:07:26;23.00;;;12.67;;
3815;SDS011;1923;48.154;11.536;2024-03-08T12:12:46;22.90;;;11.67;;
3815;SDS011;1923;48.154;11.536;2024-03-08T12:15:16;21.80;;;10.67;;
3815;SDS011;1923;48.154;11.536;2024-03-08T12:17:47;21.60;;;10.90;;
3815;SDS011;1923;48.154;11.536;2024-03-08T12:20:17;22.83;;;11.90;;
3815;SDS011;1923;48.154;11.536;2024-03-08T12:22:48;23.10;;;11.27;;
3815;SDS011;1923;48.154;11.536;2024-03-08T12:25:18;21.90;;;11.50;;
3815;SDS011;1923;48.154;11.536;2024-03-08T12:27:49;24.63;;;11.63;;
3815;SDS011;1923;48.154;11.536;2024-03-08T12:30:19;21.30;;;11.17;;
3815;SDS011;1923;48.154;11.536;2024-03-08T12:32:53;23.50;;;11.30;;
3815;SDS011;1923;48.154;11.536;2024-03-08T12:35:25;25.53;;;12.20;;
3815;SDS011;1923;48.154;11.536;2024-03-08T12:37:54;21.70;;;12.00;;
3815;SDS011;1923;48.154;11.536;2024-03-08T12:40:27;24.77;;;12.10;;
3815;SDS011;1923;48.154;11.536;2024-03-08T12:42:57;23.50;;;12.70;;
3815;SDS011;1923;48.154;11.536;2024-03-08T12:45:26;22.13;;;11.43;;
3815;SDS011;1923;48.154;11.536;2024-03-08T12:47:54;22.80;;;11.37;;
3815;SDS011;1923;48.154;11.536;2024-03-08T12:50:26;23.10;;;11.50;;
3815;SDS011;1923;48.154;11.536;2024-03-08T12:52:56;20.73;;;10.40;;
3815;SDS011;1923;48.154;11.536;2024-03-08T12:55:24;26.27;;;12.20;;
3815;SDS011;1923;48.154;11.536;2024-03-08T12:57:53;25.37;;;12.23;;
3815;SDS011;1923;48.154;11.536;2024-03-08T13:00:23;25.80;;;11.93;;
3815;SDS011;1923;48.154;11.536;2024-03-08T13:02:52;24.00;;;11.60;;
3815;SDS011;1923;48.154;11.536;2024-03-08T13:05:20;21.93;;;11.20;;
3815;SDS011;1923;48.154;11.536;2024-03-08T13:07:49;24.87;;;10.87;;
3815;SDS011;1923;48.154;11.536;2024-03-08T13:10:19;26.13;;;11.07;;
3815;SDS011;1923;48.154;11.536;2024-03-08T13:12:49;22.53;;;11.43;;
3815;SDS011;1923;48.154;11.536;2024-03-08T13:15:20;18.13;;;9.77;;
3815;SDS011;1923;48.154;11.536;2024-03-08T13:17:49;21.80;;;11.50;;
3815;SDS011;1923;48.154;11.536;2024-03-08T13:20:17;23.83;;;10.50;;
3815;SDS011;1923;48.154;11.536;2024-03-08T13:22:56;21.70;;;10.10;;
3815;SDS011;1923;48.154;11.536;2024-03-08T13:25:26;18.57;;;10.00;;
3815;SDS011;1923;48.154;11.536;2024-03-08T13:27:55;24.07;;;11.03;;
3815;SDS011;1923;48.154;11.536;2024-03-08T13:30:25;23.87;;;10.90;;
3815;SDS011;1923;48.154;11.536;2024-03-08T13:32:55;23.60;;;10.97;;
3815;SDS011;1923;48.154;11.536;2024-03-08T13:35:23;21.03;;;10.37;;
3815;SDS011;1923;48.154;11.536;2024-03-08T13:37:53;19.97;;;9.90;;
3815;SDS011;1923;48.154;11.536;2024-03-08T13:40:22;22.20;;;11.20;;
3815;SDS011;1923;48.154;11.536;2024-03-08T13:42:50;24.93;;;9.90;;
3815;SDS011;1923;48.154;11.536;2024-03-08T13:45:18;20.97;;;10.63;;
3815;SDS011;1923;48.154;11.536;2024-03-08T13:47:50;19.17;;;10.00;;
3815;SDS011;1923;48.154;11.536;2024-03-08T13:50:20;22.23;;;10.17;;
3815;SDS011;1923;48.154;11.536;2024-03-08T13:52:49;21.83;;;10.80;;
3815;SDS011;1923;48.154;11.536;2024-03-08T13:55:20;21.53;;;9.83;;
3815;SDS011;1923;48.154;11.536;2024-03-08T13:57:49;18.20;;;9.97;;
3815;SDS011;1923;48.154;11.536;2024-03-08T14:00:18;19.37;;;9.90;;
3815;SDS011;1923;48.154;11.536;2024-03-08T14:02:49;19.47;;;10.93;;
3815;SDS011;1923;48.154;11.536;2024-03-08T14:05:17;21.20;;;9.13;;
3815;SDS011;1923;48.154;11.536;2024-03-08T14:07:47;17.73;;;10.30;;
3815;SDS011;1923;48.154;11.536;2024-03-08T14:10:16;17.40;;;9.47;;
3815;SDS011;1923;48.154;11.536;2024-03-08T14:12:47;20.83;;;10.37;;
3815;SDS011;1923;48.154;11.536;2024-03-08T14:15:17;22.60;;;10.50;;
3815;SDS011;1923;48.154;11.536;2024-03-08T14:17:51;19.90;;;10.97;;
3815;SDS011;1923;48.154;11.536;2024-03-08T14:20:20;19.20;;;9.00;;
3815;SDS011;1923;48.154;11.536;2024-03-08T14:22:53;17.13;;;9.10;;
3815;SDS011;1923;48.154;11.536;2024-03-08T14:25:22;20.23;;;9.83;;
3815;SDS011;1923;48.154;11.536;2024-03-08T14:27:52;19.30;;;9.53;;
3815;SDS011;1923;48.154;11.536;2024-03-08T14:30:24;20.43;;;9.87;;
3815;SDS011;1923;48.154;11.536;2024-03-08T14:33:04;19.23;;;8.97;;
3815;SDS011;1923;48.154;11.536;2024-03-08T14:35:36;21.37;;;10.60;;
3815;SDS011;1923;48.154;11.536;2024-03-08T14:38:05;18.33;;;9.57;;
3815;SDS011;1923;48.154;11.536;2024-03-08T14:40:35;21.00;;;9.10;;
3815;SDS011;1923;48.154;11.536;2024-03-08T14:43:04;21.10;;;9.87;;
3815;SDS011;1923;48.154;11.536;2024-03-08T14:45:32;19.10;;;9.20;;
3815;SDS011;1923;48.154;11.536;2024-03-08T14:48:01;21.97;;;10.20;;
3815;SDS011;1923;48.154;11.536;2024-03-08T14:50:31;15.50;;;8.80;;
3815;SDS011;1923;48.154;11.536;2024-03-08T14:53:00;19.30;;;9.50;;